sensor_id;sensor_type;location;lat;lon;timestamp;P1;durP1;ratioP1;P2;durP2;ratioP2
22603;SDS011;11469;49.024;8.246;2022-11-20T00:03:35;21.23;;;12.55;;
22603;SDS011;11469;49.024;8.246;2022-11-20T00:06:05;24.05;;;14.65;;
22603;SDS011;11469;49.024;8.246;2022-11-20T00:08:32;22.70;;;14.18;;
22603;SDS011;11469;49.024;8.246;2022-11-20T00:13:57;23.83;;;13.73;;
22603;SDS011;11469;49.024;8.246;2022-11-20T00:16:25;20.42;;;12.57;;
22603;SDS011;11469;49.024;8.246;2022-11-20T00:18:51;21.40;;;13.05;;
22603;SDS011;11469;49.024;8.246;2022-11-20T00:21:18;21.83;;;13.57;;
22603;SDS011;11469;49.024;8.246;2022-11-20T00:23:45;24.67;;;13.18;;
22603;SDS011;11469;49.024;8.246;2022-11-20T00:26:12;22.83;;;13.05;;
22603;SDS011;11469;49.024;8.246;2022-11-20T00:28:39;23.70;;;13.70;;
22603;SDS011;11469;49.024;8.246;2022-11-20T00:31:09;22.15;;;11.60;;
22603;SDS011;11469;49.024;8.246;2022-11-20T00:33:36;21.00;;;11.90;;
22603;SDS011;11469;49.024;8.246;2022-11-20T00:36:02;21.35;;;11.55;;
22603;SDS011;11469;49.024;8.246;2022-11-20T00:38:30;21.58;;;12.98;;
22603;SDS011;11469;49.024;8.246;2022-11-20T00:41:01;21.63;;;12.20;;
22603;SDS011;11469;49.024;8.246;2022-11-20T00:43:28;21.08;;;12.40;;
22603;SDS011;11469;49.024;8.246;2022-11-20T00:45:57;25.60;;;13.73;;
22603;SDS011;11469;49.024;8.246;2022-11-20T00:48:34;31.50;;;14.23;;
22603;SDS011;11469;49.024;8.246;2022-11-20T00:50:59;24.98;;;13.25;;
22603;SDS011;11469;49.024;8.246;2022-11-20T00:53:25;22.25;;;13.15;;
22603;SDS011;11469;49.024;8.246;2022-11-20T00:55:54;25.08;;;13.43;;
22603;SDS011;11469;49.024;8.246;2022-11-20T00:58:31;24.73;;;13.10;;
22603;SDS011;11469;49.024;8.246;2022-11-20T01:01:03;31.60;;;14.32;;
22603;SDS011;11469;49.024;8.246;2022-11-20T01:03:31;31.50;;;15.52;;
22603;SDS011;11469;49.024;8.246;2022-11-20T01:06:00;25.52;;;14.70;;
22603;SDS011;11469;49.024;8.246;2022-11-20T01:08:34;25.13;;;14.57;;
22603;SDS011;11469;49.024;8.246;2022-11-20T01:11:00;24.10;;;13.93;;
22603;SDS011;11469;49.024;8.246;2022-11-20T01:13:31;26.45;;;14.45;;
22603;SDS011;11469;49.024;8.246;2022-11-20T01:16:07;25.98;;;14.20;;
22603;SDS011;11469;49.024;8.246;2022-11-20T01:18:39;24.75;;;14.27;;
22603;SDS011;11469;49.024;8.246;2022-11-20T01:21:12;25.55;;;13.63;;
22603;SDS011;11469;49.024;8.246;2022-11-20T01:23:41;26.90;;;14.98;;
22603;SDS011;11469;49.024;8.246;2022-11-20T01:26:08;24.90;;;14.13;;
22603;SDS011;11469;49.024;8.246;2022-11-20T01:28:35;29.05;;;14.23;;
22603;SDS011;11469;49.024;8.246;2022-11-20T01:31:01;26.23;;;14.32;;
22603;SDS011;11469;49.024;8.246;2022-11-20T01:33:34;28.57;;;14.53;;
22603;SDS011;11469;49.024;8.246;2022-11-20T01:36:04;23.75;;;13.68;;
22603;SDS011;11469;49.024;8.246;2022-11-20T01:38:30;27.23;;;14.20;;
22603;SDS011;11469;49.024;8.246;2022-11-20T01:40:56;25.05;;;14.07;;
22603;SDS011;11469;49.024;8.246;2022-11-20T01:43:21;22.67;;;13.18;;
22603;SDS011;11469;49.024;8.246;2022-11-20T01:52:00;26.80;;;15.45;;
22603;SDS011;11469;49.024;8.246;2022-11-20T01:54:05;33.05;;;15.38;;
22603;SDS011;11469;49.024;8.246;2022-11-20T01:56:36;30.15;;;16.02;;
22603;SDS011;11469;49.024;8.246;2022-11-20T01:59:05;34.15;;;15.57;;
22603;SDS011;11469;49.024;8.246;2022-11-20T02:01:33;31.83;;;15.57;;
22603;SDS011;11469;49.024;8.246;2022-11-20T02:03:59;34.67;;;15.98;;
22603;SDS011;11469;49.024;8.246;2022-11-20T02:06:27;28.98;;;15.93;;
22603;SDS011;11469;49.024;8.246;2022-11-20T02:08:57;29.00;;;15.02;;
22603;SDS011;11469;49.024;8.246;2022-11-20T02:11:22;27.92;;;14.40;;
22603;SDS011;11469;49.024;8.246;2022-11-20T02:13:48;28.40;;;16.33;;
22603;SDS011;11469;49.024;8.246;2022-11-20T02:16:24;31.77;;;14.88;;
22603;SDS011;11469;49.024;8.246;2022-11-20T02:18:54;28.10;;;15.40;;
22603;SDS011;11469;49.024;8.246;2022-11-20T02:21:29;28.27;;;13.98;;
22603;SDS011;11469;49.024;8.246;2022-11-20T02:24:12;32.67;;;14.57;;
22603;SDS011;11469;49.024;8.246;2022-11-20T02:26:51;27.13;;;13.70;;
22603;SDS011;11469;49.024;8.246;2022-11-20T02:29:31;27.30;;;13.07;;
22603;SDS011;11469;49.024;8.246;2022-11-20T02:32:00;24.20;;;13.43;;
22603;SDS011;11469;49.024;8.246;2022-11-20T02:34:27;19.80;;;12.40;;
22603;SDS011;11469;49.024;8.246;2022-11-20T02:36:53;19.88;;;11.95;;
22603;SDS011;11469;49.024;8.246;2022-11-20T02:39:20;24.63;;;12.50;;
22603;SDS011;11469;49.024;8.246;2022-11-20T02:41:48;23.70;;;11.82;;
22603;SDS011;11469;49.024;8.246;2022-11-20T02:44:13;17.55;;;11.02;;
22603;SDS011;11469;49.024;8.246;2022-11-20T02:46:39;20.98;;;10.60;;
22603;SDS011;11469;49.024;8.246;2022-11-20T02:49:04;21.15;;;10.45;;
22603;SDS011;11469;49.024;8.246;2022-11-20T02:51:30;20.23;;;10.23;;
22603;SDS011;11469;49.024;8.246;2022-11-20T02:53:56;25.20;;;10.65;;
22603;SDS011;11469;49.024;8.246;2022-11-20T02:56:21;19.85;;;9.05;;
22603;SDS011;11469;49.024;8.246;2022-11-20T02:58:47;19.70;;;10.15;;
22603;SDS011;11469;49.024;8.246;2022-11-20T03:01:13;17.40;;;9.10;;
22603;SDS011;11469;49.024;8.246;2022-11-20T03:03:38;19.13;;;8.68;;
22603;SDS011;11469;49.024;8.246;2022-11-20T03:06:04;19.48;;;9.02;;
22603;SDS011;11469;49.024;8.246;2022-11-20T03:08:29;22.13;;;9.00;;
22603;SDS011;11469;49.024;8.246;2022-11-20T03:10:55;15.07;;;8.23;;
22603;SDS011;11469;49.024;8.246;2022-11-20T03:13:20;15.82;;;8.40;;
22603;SDS011;11469;49.024;8.246;2022-11-20T03:15:46;15.80;;;8.18;;
22603;SDS011;11469;49.024;8.246;2022-11-20T03:18:11;13.43;;;8.18;;
22603;SDS011;11469;49.024;8.246;2022-11-20T03:20:38;18.52;;;8.80;;
22603;SDS011;11469;49.024;8.246;2022-11-20T03:23:04;15.40;;;8.55;;
22603;SDS011;11469;49.024;8.246;2022-11-20T03:25:30;17.55;;;8.30;;
22603;SDS011;11469;49.024;8.246;2022-11-20T03:27:55;13.85;;;8.13;;
22603;SDS011;11469;49.024;8.246;2022-11-20T03:30:21;15.90;;;7.60;;
22603;SDS011;11469;49.024;8.246;2022-11-20T03:32:47;15.48;;;7.97;;
22603;SDS011;11469;49.024;8.246;2022-11-20T03:35:12;21.65;;;8.85;;
22603;SDS011;11469;49.024;8.246;2022-11-20T03:37:38;14.50;;;8.52;;
22603;SDS011;11469;49.024;8.246;2022-11-20T03:40:03;17.73;;;8.00;;
22603;SDS011;11469;49.024;8.246;2022-11-20T03:42:29;14.07;;;7.82;;
22603;SDS011;11469;49.024;8.246;2022-11-20T03:45:10;14.40;;;8.05;;
22603;SDS011;11469;49.024;8.246;2022-11-20T03:47:35;16.25;;;7.80;;
22603;SDS011;11469;49.024;8.246;2022-11-20T03:50:00;13.88;;;7.97;;
22603;SDS011;11469;49.024;8.246;2022-11-20T03:52:26;12.27;;;6.90;;
22603;SDS011;11469;49.024;8.246;2022-11-20T03:54:51;13.25;;;6.85;;
22603;SDS011;11469;49.024;8.246;2022-11-20T03:57:17;14.48;;;7.15;;
22603;SDS011;11469;49.024;8.246;2022-11-20T03:59:42;13.20;;;7.03;;
22603;SDS011;11469;49.024;8.246;2022-11-20T04:02:07;13.45;;;7.38;;
22603;SDS011;11469;49.024;8.246;2022-11-20T04:04:33;14.82;;;7.35;;
22603;SDS011;11469;49.024;8.246;2022-11-20T04:06:58;12.43;;;6.90;;
22603;SDS011;11469;49.024;8.246;2022-11-20T04:09:24;12.45;;;7.10;;
22603;SDS011;11469;49.024;8.246;2022-11-20T04:11:49;11.38;;;7.13;;
22603;SDS011;11469;49.024;8.246;2022-11-20T04:14:15;14.05;;;6.40;;
22603;SDS011;11469;49.024;8.246;2022-11-20T04:16:41;13.15;;;7.30;;
22603;SDS011;11469;49.024;8.246;2022-11-20T04:19:09;15.00;;;6.68;;
22603;SDS011;11469;49.024;8.246;2022-11-20T04:21:36;11.23;;;7.45;;
22603;SDS011;11469;49.024;8.246;2022-11-20T04:24:02;11.68;;;7.15;;
22603;SDS011;11469;49.024;8.246;2022-11-20T04:26:28;11.98;;;6.40;;
22603;SDS011;11469;49.024;8.246;2022-11-20T04:28:54;12.25;;;6.65;;
22603;SDS011;11469;49.024;8.246;2022-11-20T04:31:22;11.48;;;6.40;;
22603;SDS011;11469;49.024;8.246;2022-11-20T04:33:52;12.55;;;6.93;;
22603;SDS011;11469;49.024;8.246;2022-11-20T04:36:24;10.48;;;5.65;;
22603;SDS011;11469;49.024;8.246;2022-11-20T04:38:51;9.85;;;6.15;;
22603;SDS011;11469;49.024;8.246;2022-11-20T04:41:21;11.07;;;6.22;;
22603;SDS011;11469;49.024;8.246;2022-11-20T04:43:49;11.82;;;5.43;;
22603;SDS011;11469;49.024;8.246;2022-11-20T04:46:16;10.65;;;5.93;;
22603;SDS011;11469;49.024;8.246;2022-11-20T04:48:45;9.15;;;5.75;;
22603;SDS011;11469;49.024;8.246;2022-11-20T04:51:11;9.68;;;5.60;;
22603;SDS011;11469;49.024;8.246;2022-11-20T04:53:37;11.77;;;6.68;;
22603;SDS011;11469;49.024;8.246;2022-11-20T04:56:03;9.05;;;5.43;;
22603;SDS011;11469;49.024;8.246;2022-11-20T04:58:31;8.38;;;5.43;;
22603;SDS011;11469;49.024;8.246;2022-11-20T05:01:04;12.00;;;5.40;;
22603;SDS011;11469;49.024;8.246;2022-11-20T05:03:34;8.93;;;4.85;;
22603;SDS011;11469;49.024;8.246;2022-11-20T05:06:01;11.88;;;5.60;;
22603;SDS011;11469;49.024;8.246;2022-11-20T05:08:27;7.45;;;5.13;;
22603;SDS011;11469;49.024;8.246;2022-11-20T05:10:58;9.95;;;5.45;;
22603;SDS011;11469;49.024;8.246;2022-11-20T05:13:25;11.63;;;4.97;;
22603;SDS011;11469;49.024;8.246;2022-11-20T05:15:50;7.95;;;4.68;;
22603;SDS011;11469;49.024;8.246;2022-11-20T05:18:15;11.85;;;4.90;;
22603;SDS011;11469;49.024;8.246;2022-11-20T05:20:41;7.47;;;5.07;;
22603;SDS011;11469;49.024;8.246;2022-11-20T05:23:06;11.77;;;5.10;;
22603;SDS011;11469;49.024;8.246;2022-11-20T05:25:31;9.07;;;4.93;;
22603;SDS011;11469;49.024;8.246;2022-11-20T05:27:57;9.15;;;4.00;;
22603;SDS011;11469;49.024;8.246;2022-11-20T05:30:22;8.48;;;4.22;;
22603;SDS011;11469;49.024;8.246;2022-11-20T05:32:48;8.98;;;4.50;;
22603;SDS011;11469;49.024;8.246;2022-11-20T05:35:13;7.60;;;4.30;;
22603;SDS011;11469;49.024;8.246;2022-11-20T05:37:39;8.20;;;5.32;;
22603;SDS011;11469;49.024;8.246;2022-11-20T05:40:04;7.60;;;3.85;;
22603;SDS011;11469;49.024;8.246;2022-11-20T05:42:30;6.85;;;4.13;;
22603;SDS011;11469;49.024;8.246;2022-11-20T05:45:05;10.05;;;4.65;;
22603;SDS011;11469;49.024;8.246;2022-11-20T05:47:34;6.53;;;3.95;;
22603;SDS011;11469;49.024;8.246;2022-11-20T05:50:00;7.95;;;3.83;;
22603;SDS011;11469;49.024;8.246;2022-11-20T05:52:28;9.45;;;4.43;;
22603;SDS011;11469;49.024;8.246;2022-11-20T05:54:54;8.93;;;4.00;;
22603;SDS011;11469;49.024;8.246;2022-11-20T05:57:19;10.05;;;4.20;;
22603;SDS011;11469;49.024;8.246;2022-11-20T05:59:45;7.68;;;4.20;;
22603;SDS011;11469;49.024;8.246;2022-11-20T06:02:10;8.48;;;4.32;;
22603;SDS011;11469;49.024;8.246;2022-11-20T06:04:36;8.63;;;4.20;;
22603;SDS011;11469;49.024;8.246;2022-11-20T06:07:01;6.75;;;3.83;;
22603;SDS011;11469;49.024;8.246;2022-11-20T06:09:26;5.80;;;3.65;;
22603;SDS011;11469;49.024;8.246;2022-11-20T06:11:52;7.75;;;4.07;;
22603;SDS011;11469;49.024;8.246;2022-11-20T06:14:17;5.53;;;3.50;;
22603;SDS011;11469;49.024;8.246;2022-11-20T06:16:43;7.22;;;4.63;;
22603;SDS011;11469;49.024;8.246;2022-11-20T06:19:08;8.63;;;4.00;;
22603;SDS011;11469;49.024;8.246;2022-11-20T06:21:33;6.97;;;3.78;;
22603;SDS011;11469;49.024;8.246;2022-11-20T06:23:59;13.23;;;4.95;;
22603;SDS011;11469;49.024;8.246;2022-11-20T06:26:25;6.20;;;3.78;;
22603;SDS011;11469;49.024;8.246;2022-11-20T06:28:52;7.03;;;4.93;;
22603;SDS011;11469;49.024;8.246;2022-11-20T06:31:19;8.48;;;4.30;;
22603;SDS011;11469;49.024;8.246;2022-11-20T06:33:46;12.10;;;6.18;;
22603;SDS011;11469;49.024;8.246;2022-11-20T06:36:13;7.95;;;4.78;;
22603;SDS011;11469;49.024;8.246;2022-11-20T06:38:40;7.93;;;4.55;;
22603;SDS011;11469;49.024;8.246;2022-11-20T06:41:06;8.45;;;4.50;;
22603;SDS011;11469;49.024;8.246;2022-11-20T06:43:35;9.80;;;4.82;;
22603;SDS011;11469;49.024;8.246;2022-11-20T06:46:00;11.65;;;5.65;;
22603;SDS011;11469;49.024;8.246;2022-11-20T06:48:26;9.75;;;4.65;;
22603;SDS011;11469;49.024;8.246;2022-11-20T06:50:52;10.18;;;5.07;;
22603;SDS011;11469;49.024;8.246;2022-11-20T06:53:18;10.00;;;5.07;;
22603;SDS011;11469;49.024;8.246;2022-11-20T06:55:44;10.38;;;4.95;;
22603;SDS011;11469;49.024;8.246;2022-11-20T06:58:11;11.63;;;4.50;;
22603;SDS011;11469;49.024;8.246;2022-11-20T07:00:39;18.13;;;4.68;;
22603;SDS011;11469;49.024;8.246;2022-11-20T07:03:06;8.82;;;4.68;;
22603;SDS011;11469;49.024;8.246;2022-11-20T07:05:32;8.20;;;3.95;;
22603;SDS011;11469;49.024;8.246;2022-11-20T07:07:58;7.00;;;4.25;;
22603;SDS011;11469;49.024;8.246;2022-11-20T07:10:24;8.95;;;4.63;;
22603;SDS011;11469;49.024;8.246;2022-11-20T07:12:50;9.10;;;4.47;;
22603;SDS011;11469;49.024;8.246;2022-11-20T07:15:16;7.97;;;4.40;;
22603;SDS011;11469;49.024;8.246;2022-11-20T07:17:42;9.00;;;4.40;;
22603;SDS011;11469;49.024;8.246;2022-11-20T07:20:07;7.90;;;4.47;;
22603;SDS011;11469;49.024;8.246;2022-11-20T07:22:33;6.57;;;4.18;;
22603;SDS011;11469;49.024;8.246;2022-11-20T07:24:58;5.65;;;4.00;;
22603;SDS011;11469;49.024;8.246;2022-11-20T07:27:24;9.57;;;3.85;;
22603;SDS011;11469;49.024;8.246;2022-11-20T07:29:49;6.80;;;4.00;;
22603;SDS011;11469;49.024;8.246;2022-11-20T07:32:14;7.25;;;3.42;;
22603;SDS011;11469;49.024;8.246;2022-11-20T07:34:40;9.68;;;4.38;;
22603;SDS011;11469;49.024;8.246;2022-11-20T07:37:05;7.65;;;4.35;;
22603;SDS011;11469;49.024;8.246;2022-11-20T07:39:30;8.85;;;3.88;;
22603;SDS011;11469;49.024;8.246;2022-11-20T07:41:56;9.48;;;4.40;;
22603;SDS011;11469;49.024;8.246;2022-11-20T07:44:21;8.82;;;4.43;;
22603;SDS011;11469;49.024;8.246;2022-11-20T07:46:47;9.63;;;4.70;;
22603;SDS011;11469;49.024;8.246;2022-11-20T07:49:12;7.65;;;4.65;;
22603;SDS011;11469;49.024;8.246;2022-11-20T07:51:37;10.02;;;4.20;;
22603;SDS011;11469;49.024;8.246;2022-11-20T07:54:03;10.95;;;4.68;;
22603;SDS011;11469;49.024;8.246;2022-11-20T07:56:28;9.48;;;4.00;;
22603;SDS011;11469;49.024;8.246;2022-11-20T07:58:54;7.75;;;4.05;;
22603;SDS011;11469;49.024;8.246;2022-11-20T08:01:19;7.55;;;3.95;;
22603;SDS011;11469;49.024;8.246;2022-11-20T08:03:44;7.53;;;3.70;;
22603;SDS011;11469;49.024;8.246;2022-11-20T08:06:10;6.40;;;3.55;;
22603;SDS011;11469;49.024;8.246;2022-11-20T08:08:35;8.32;;;3.45;;
22603;SDS011;11469;49.024;8.246;2022-11-20T08:11:01;9.55;;;3.40;;
22603;SDS011;11469;49.024;8.246;2022-11-20T08:13:45;8.63;;;4.13;;
22603;SDS011;11469;49.024;8.246;2022-11-20T08:16:28;8.05;;;3.53;;
22603;SDS011;11469;49.024;8.246;2022-11-20T08:18:54;6.57;;;3.35;;
22603;SDS011;11469;49.024;8.246;2022-11-20T08:21:19;6.65;;;3.97;;
22603;SDS011;11469;49.024;8.246;2022-11-20T08:23:45;6.57;;;3.15;;
22603;SDS011;11469;49.024;8.246;2022-11-20T08:26:10;6.45;;;3.35;;
22603;SDS011;11469;49.024;8.246;2022-11-20T08:28:36;7.32;;;4.25;;
22603;SDS011;11469;49.024;8.246;2022-11-20T08:31:02;10.57;;;4.30;;
22603;SDS011;11469;49.024;8.246;2022-11-20T08:33:28;7.55;;;4.10;;
22603;SDS011;11469;49.024;8.246;2022-11-20T08:35:57;8.38;;;4.40;;
22603;SDS011;11469;49.024;8.246;2022-11-20T08:38:26;7.55;;;3.67;;
22603;SDS011;11469;49.024;8.246;2022-11-20T08:40:51;11.68;;;5.07;;
22603;SDS011;11469;49.024;8.246;2022-11-20T08:43:35;6.97;;;4.35;;
22603;SDS011;11469;49.024;8.246;2022-11-20T08:46:00;11.48;;;6.30;;
22603;SDS011;11469;49.024;8.246;2022-11-20T08:48:26;9.52;;;4.80;;
22603;SDS011;11469;49.024;8.246;2022-11-20T08:50:51;7.95;;;4.07;;
22603;SDS011;11469;49.024;8.246;2022-11-20T08:53:16;9.30;;;4.95;;
22603;SDS011;11469;49.024;8.246;2022-11-20T08:55:42;8.50;;;4.15;;
22603;SDS011;11469;49.024;8.246;2022-11-20T08:58:07;11.50;;;4.82;;
22603;SDS011;11469;49.024;8.246;2022-11-20T09:00:33;9.98;;;4.38;;
22603;SDS011;11469;49.024;8.246;2022-11-20T09:02:59;8.27;;;4.07;;
22603;SDS011;11469;49.024;8.246;2022-11-20T09:05:26;10.23;;;5.28;;
22603;SDS011;11469;49.024;8.246;2022-11-20T09:07:51;5.43;;;3.90;;
22603;SDS011;11469;49.024;8.246;2022-11-20T09:10:17;10.35;;;4.55;;
22603;SDS011;11469;49.024;8.246;2022-11-20T09:12:42;7.72;;;4.32;;
22603;SDS011;11469;49.024;8.246;2022-11-20T09:15:07;8.35;;;4.57;;
22603;SDS011;11469;49.024;8.246;2022-11-20T09:17:33;10.38;;;6.03;;
22603;SDS011;11469;49.024;8.246;2022-11-20T09:19:59;11.25;;;5.65;;
22603;SDS011;11469;49.024;8.246;2022-11-20T09:22:24;8.40;;;4.55;;
22603;SDS011;11469;49.024;8.246;2022-11-20T09:24:49;7.03;;;4.03;;
22603;SDS011;11469;49.024;8.246;2022-11-20T09:27:15;7.00;;;4.57;;
22603;SDS011;11469;49.024;8.246;2022-11-20T09:29:45;23.73;;;10.85;;
22603;SDS011;11469;49.024;8.246;2022-11-20T09:32:10;26.60;;;13.55;;
22603;SDS011;11469;49.024;8.246;2022-11-20T09:34:36;16.80;;;7.53;;
22603;SDS011;11469;49.024;8.246;2022-11-20T09:37:01;14.52;;;8.50;;
22603;SDS011;11469;49.024;8.246;2022-11-20T09:39:27;17.40;;;7.72;;
22603;SDS011;11469;49.024;8.246;2022-11-20T09:52:37;12.88;;;8.20;;
22603;SDS011;11469;49.024;8.246;2022-11-20T09:55:08;23.35;;;14.93;;
22603;SDS011;11469;49.024;8.246;2022-11-20T09:57:37;13.00;;;7.68;;
22603;SDS011;11469;49.024;8.246;2022-11-20T10:00:11;25.15;;;13.63;;
22603;SDS011;11469;49.024;8.246;2022-11-20T10:02:42;33.35;;;17.17;;
22603;SDS011;11469;49.024;8.246;2022-11-20T10:05:18;30.52;;;14.45;;
22603;SDS011;11469;49.024;8.246;2022-11-20T10:10:40;22.63;;;12.27;;
22603;SDS011;11469;49.024;8.246;2022-11-20T10:18:49;25.67;;;12.70;;
22603;SDS011;11469;49.024;8.246;2022-11-20T10:21:48;26.33;;;13.00;;
22603;SDS011;11469;49.024;8.246;2022-11-20T10:24:39;17.42;;;11.77;;
22603;SDS011;11469;49.024;8.246;2022-11-20T10:30:08;20.50;;;9.48;;
22603;SDS011;11469;49.024;8.246;2022-11-20T10:32:39;17.85;;;7.78;;
22603;SDS011;11469;49.024;8.246;2022-11-20T10:37:51;15.45;;;8.77;;
22603;SDS011;11469;49.024;8.246;2022-11-20T10:40:23;13.70;;;6.78;;
22603;SDS011;11469;49.024;8.246;2022-11-20T10:47:56;33.67;;;18.08;;
22603;SDS011;11469;49.024;8.246;2022-11-20T10:50:31;31.23;;;16.52;;
22603;SDS011;11469;49.024;8.246;2022-11-20T10:56:17;15.23;;;7.10;;
22603;SDS011;11469;49.024;8.246;2022-11-20T11:01:26;13.38;;;6.20;;
22603;SDS011;11469;49.024;8.246;2022-11-20T11:03:52;13.55;;;3.95;;
22603;SDS011;11469;49.024;8.246;2022-11-20T11:08:53;12.88;;;4.20;;
22603;SDS011;11469;49.024;8.246;2022-11-20T11:11:27;13.70;;;3.78;;
22603;SDS011;11469;49.024;8.246;2022-11-20T11:14:07;10.35;;;4.22;;
22603;SDS011;11469;49.024;8.246;2022-11-20T11:16:33;14.73;;;3.80;;
22603;SDS011;11469;49.024;8.246;2022-11-20T11:21:32;12.55;;;3.15;;
22603;SDS011;11469;49.024;8.246;2022-11-20T11:24:04;10.52;;;3.30;;
22603;SDS011;11469;49.024;8.246;2022-11-20T11:26:30;10.77;;;2.53;;
22603;SDS011;11469;49.024;8.246;2022-11-20T11:29:00;10.77;;;2.60;;
22603;SDS011;11469;49.024;8.246;2022-11-20T11:31:34;10.57;;;3.05;;
22603;SDS011;11469;49.024;8.246;2022-11-20T11:34:03;9.85;;;2.63;;
22603;SDS011;11469;49.024;8.246;2022-11-20T11:36:29;13.32;;;4.70;;
22603;SDS011;11469;49.024;8.246;2022-11-20T11:38:55;16.15;;;3.88;;
22603;SDS011;11469;49.024;8.246;2022-11-20T11:41:25;12.63;;;3.30;;
22603;SDS011;11469;49.024;8.246;2022-11-20T11:43:58;6.35;;;3.20;;
22603;SDS011;11469;49.024;8.246;2022-11-20T11:46:53;8.55;;;2.45;;
22603;SDS011;11469;49.024;8.246;2022-11-20T11:49:20;9.63;;;2.45;;
22603;SDS011;11469;49.024;8.246;2022-11-20T11:54:20;6.90;;;2.03;;
22603;SDS011;11469;49.024;8.246;2022-11-20T11:56:49;5.63;;;1.88;;
22603;SDS011;11469;49.024;8.246;2022-11-20T11:59:25;10.65;;;2.83;;
22603;SDS011;11469;49.024;8.246;2022-11-20T12:02:01;13.90;;;2.60;;
22603;SDS011;11469;49.024;8.246;2022-11-20T12:04:43;9.90;;;2.30;;
22603;SDS011;11469;49.024;8.246;2022-11-20T12:16:05;8.80;;;1.52;;
22603;SDS011;11469;49.024;8.246;2022-11-20T12:18:33;6.72;;;1.80;;
22603;SDS011;11469;49.024;8.246;2022-11-20T12:26:40;11.88;;;1.50;;
22603;SDS011;11469;49.024;8.246;2022-11-20T12:43:29;8.07;;;1.88;;
22603;SDS011;11469;49.024;8.246;2022-11-20T12:46:32;7.35;;;1.65;;
22603;SDS011;11469;49.024;8.246;2022-11-20T12:57:40;3.75;;;1.20;;
22603;SDS011;11469;49.024;8.246;2022-11-20T13:00:14;9.80;;;1.20;;
22603;SDS011;11469;49.024;8.246;2022-11-20T13:08:22;3.97;;;1.15;;
22603;SDS011;11469;49.024;8.246;2022-11-20T13:13:56;7.47;;;1.05;;
22603;SDS011;11469;49.024;8.246;2022-11-20T13:19:01;7.53;;;1.88;;
22603;SDS011;11469;49.024;8.246;2022-11-20T13:21:35;6.40;;;1.90;;
22603;SDS011;11469;49.024;8.246;2022-11-20T13:27:26;5.00;;;1.30;;
22603;SDS011;11469;49.024;8.246;2022-11-20T13:29:46;6.43;;;1.30;;
22603;SDS011;11469;49.024;8.246;2022-11-20T13:32:25;6.00;;;1.35;;
22603;SDS011;11469;49.024;8.246;2022-11-20T13:34:59;4.88;;;1.25;;
22603;SDS011;11469;49.024;8.246;2022-11-20T13:37:34;3.97;;;1.10;;
22603;SDS011;11469;49.024;8.246;2022-11-20T13:42:33;5.82;;;1.80;;
22603;SDS011;11469;49.024;8.246;2022-11-20T13:45:08;7.55;;;1.70;;
22603;SDS011;11469;49.024;8.246;2022-11-20T13:47:35;3.83;;;1.17;;
22603;SDS011;11469;49.024;8.246;2022-11-20T13:50:02;6.20;;;1.48;;
22603;SDS011;11469;49.024;8.246;2022-11-20T13:55:21;8.18;;;1.73;;
22603;SDS011;11469;49.024;8.246;2022-11-20T14:03:43;5.65;;;1.25;;
22603;SDS011;11469;49.024;8.246;2022-11-20T14:06:18;6.30;;;1.35;;
22603;SDS011;11469;49.024;8.246;2022-11-20T14:08:51;7.32;;;1.27;;
22603;SDS011;11469;49.024;8.246;2022-11-20T14:11:20;6.85;;;1.42;;
22603;SDS011;11469;49.024;8.246;2022-11-20T14:14:12;4.75;;;1.80;;
22603;SDS011;11469;49.024;8.246;2022-11-20T14:16:40;6.47;;;1.33;;
22603;SDS011;11469;49.024;8.246;2022-11-20T14:21:46;5.13;;;0.93;;
22603;SDS011;11469;49.024;8.246;2022-11-20T14:24:12;5.80;;;1.77;;
22603;SDS011;11469;49.024;8.246;2022-11-20T14:26:42;5.82;;;1.30;;
22603;SDS011;11469;49.024;8.246;2022-11-20T14:29:18;5.25;;;1.25;;
22603;SDS011;11469;49.024;8.246;2022-11-20T14:31:47;6.47;;;1.15;;
22603;SDS011;11469;49.024;8.246;2022-11-20T14:34:26;7.28;;;1.50;;
22603;SDS011;11469;49.024;8.246;2022-11-20T14:36:57;4.45;;;1.35;;
22603;SDS011;11469;49.024;8.246;2022-11-20T14:39:28;2.90;;;1.15;;
22603;SDS011;11469;49.024;8.246;2022-11-20T14:41:57;5.22;;;1.40;;
22603;SDS011;11469;49.024;8.246;2022-11-20T14:44:34;3.63;;;1.10;;
22603;SDS011;11469;49.024;8.246;2022-11-20T14:47:01;6.93;;;1.52;;
22603;SDS011;11469;49.024;8.246;2022-11-20T14:49:29;6.72;;;1.35;;
22603;SDS011;11469;49.024;8.246;2022-11-20T14:51:59;4.97;;;1.05;;
22603;SDS011;11469;49.024;8.246;2022-11-20T14:54:26;8.45;;;1.60;;
22603;SDS011;11469;49.024;8.246;2022-11-20T14:56:56;9.80;;;3.20;;
22603;SDS011;11469;49.024;8.246;2022-11-20T14:59:27;14.05;;;4.68;;
22603;SDS011;11469;49.024;8.246;2022-11-20T15:02:10;13.73;;;6.03;;
22603;SDS011;11469;49.024;8.246;2022-11-20T15:07:11;43.53;;;14.75;;
22603;SDS011;11469;49.024;8.246;2022-11-20T15:09:36;12.55;;;4.55;;
22603;SDS011;11469;49.024;8.246;2022-11-20T15:12:02;6.72;;;1.60;;
22603;SDS011;11469;49.024;8.246;2022-11-20T15:14:28;4.20;;;1.13;;
22603;SDS011;11469;49.024;8.246;2022-11-20T15:16:55;7.80;;;1.70;;
22603;SDS011;11469;49.024;8.246;2022-11-20T15:19:22;6.05;;;1.27;;
22603;SDS011;11469;49.024;8.246;2022-11-20T15:21:49;2.78;;;1.27;;
22603;SDS011;11469;49.024;8.246;2022-11-20T15:24:15;4.85;;;2.00;;
22603;SDS011;11469;49.024;8.246;2022-11-20T15:26:40;4.75;;;1.90;;
22603;SDS011;11469;49.024;8.246;2022-11-20T15:29:10;10.77;;;2.08;;
22603;SDS011;11469;49.024;8.246;2022-11-20T15:31:37;9.23;;;1.88;;
22603;SDS011;11469;49.024;8.246;2022-11-20T15:34:12;8.85;;;4.55;;
22603;SDS011;11469;49.024;8.246;2022-11-20T15:36:39;9.38;;;4.20;;
22603;SDS011;11469;49.024;8.246;2022-11-20T15:39:05;10.20;;;5.00;;
22603;SDS011;11469;49.024;8.246;2022-11-20T15:41:32;7.75;;;3.13;;
22603;SDS011;11469;49.024;8.246;2022-11-20T15:43:59;6.68;;;3.13;;
22603;SDS011;11469;49.024;8.246;2022-11-20T15:46:28;3.75;;;1.70;;
22603;SDS011;11469;49.024;8.246;2022-11-20T15:48:58;10.30;;;1.73;;
22603;SDS011;11469;49.024;8.246;2022-11-20T15:51:26;4.80;;;1.10;;
22603;SDS011;11469;49.024;8.246;2022-11-20T15:53:54;6.38;;;1.40;;
22603;SDS011;11469;49.024;8.246;2022-11-20T15:56:20;3.92;;;1.25;;
22603;SDS011;11469;49.024;8.246;2022-11-20T15:58:45;3.00;;;1.02;;
22603;SDS011;11469;49.024;8.246;2022-11-20T16:01:11;3.63;;;1.15;;
22603;SDS011;11469;49.024;8.246;2022-11-20T16:03:39;4.35;;;1.00;;
22603;SDS011;11469;49.024;8.246;2022-11-20T16:06:05;5.90;;;1.02;;
22603;SDS011;11469;49.024;8.246;2022-11-20T16:08:30;5.35;;;2.03;;
22603;SDS011;11469;49.024;8.246;2022-11-20T16:10:55;5.80;;;2.15;;
22603;SDS011;11469;49.024;8.246;2022-11-20T16:13:21;4.20;;;2.00;;
22603;SDS011;11469;49.024;8.246;2022-11-20T16:16:05;6.70;;;1.90;;
22603;SDS011;11469;49.024;8.246;2022-11-20T16:18:36;4.45;;;1.70;;
22603;SDS011;11469;49.024;8.246;2022-11-20T16:21:02;9.68;;;2.50;;
22603;SDS011;11469;49.024;8.246;2022-11-20T16:23:27;6.50;;;1.73;;
22603;SDS011;11469;49.024;8.246;2022-11-20T16:25:53;8.70;;;1.80;;
22603;SDS011;11469;49.024;8.246;2022-11-20T16:28:18;5.05;;;2.22;;
22603;SDS011;11469;49.024;8.246;2022-11-20T16:30:44;5.38;;;1.60;;
22603;SDS011;11469;49.024;8.246;2022-11-20T16:33:11;5.88;;;1.80;;
22603;SDS011;11469;49.024;8.246;2022-11-20T16:35:38;7.60;;;1.63;;
22603;SDS011;11469;49.024;8.246;2022-11-20T16:38:04;3.50;;;1.25;;
22603;SDS011;11469;49.024;8.246;2022-11-20T16:40:29;6.32;;;2.38;;
22603;SDS011;11469;49.024;8.246;2022-11-20T16:42:55;11.18;;;4.15;;
22603;SDS011;11469;49.024;8.246;2022-11-20T16:45:21;4.15;;;2.17;;
22603;SDS011;11469;49.024;8.246;2022-11-20T16:47:47;2.42;;;1.23;;